Time;durP1;ratioP1;P1;durP2;ratioP2;P2;SDS_P1;SDS_P2;PMS_P1;PMS_P2;Temp;Humidity;BMP_temperature;BMP_pressure;BME280_temperature;BME280_humidity;BME280_pressure;Samples;Min_cycle;Max_cycle;Signal;HPM_P1;HPM_P2
2022/01/28 00:00:53;;;;;;;8.00;3.20;;;2.40;99.90;;;;;;5131453;27;20513;-68
2022/01/28 00:03:18;;;;;;;8.10;2.83;;;2.40;99.90;;;;;;5132164;27;20462;-68
2022/01/28 00:05:44;;;;;;;5.57;2.70;;;2.40;99.90;;;;;;5134772;27;20412;-68
2022/01/28 00:08:10;;;;;;;5.23;2.50;;;2.40;99.90;;;;;;5128351;27;20183;-68
2022/01/28 00:10:38;;;;;;;4.43;2.90;;;2.40;99.90;;;;;;5128462;27;20187;-68
2022/01/28 00:40:16;;;;;;;4.70;2.93;;;2.50;99.90;;;;;;5130761;27;20516;-68
2022/01/28 00:42:42;;;;;;;7.73;3.17;;;2.60;99.90;;;;;;5133915;27;20452;-68
2022/01/28 00:45:08;;;;;;;5.97;2.93;;;2.60;99.90;;;;;;5134236;27;20444;-69
2022/01/28 00:47:34;;;;;;;8.77;3.23;;;2.60;99.90;;;;;;5130722;27;20198;-68
2022/01/28 00:49:59;;;;;;;6.43;3.00;;;2.50;99.90;;;;;;5135429;27;20452;-68
2022/01/28 00:52:26;;;;;;;6.97;3.50;;;2.50;99.90;;;;;;5134539;27;20186;-68
2022/01/28 00:54:52;;;;;;;7.00;3.03;;;2.50;99.90;;;;;;5136119;27;20274;-68
2022/01/28 00:57:17;;;;;;;7.23;2.80;;;2.50;99.90;;;;;;5135237;27;20524;-68
2022/01/28 00:59:43;;;;;;;7.77;3.00;;;2.60;99.90;;;;;;5137606;27;20211;-68
2022/01/28 01:02:09;;;;;;;7.07;2.87;;;2.70;99.90;;;;;;5130131;27;20232;-68
2022/01/28 01:04:34;;;;;;;9.27;4.00;;;2.60;99.90;;;;;;5130848;27;20191;-68
2022/01/28 01:07:01;;;;;;;5.63;2.67;;;2.60;99.90;;;;;;5134429;27;20699;-68
2022/01/28 01:09:27;;;;;;;7.67;3.63;;;2.70;99.90;;;;;;5131731;27;20186;-68
2022/01/28 01:11:52;;;;;;;7.07;2.80;;;2.60;99.90;;;;;;5135863;27;20431;-68
2022/01/28 01:14:18;;;;;;;8.03;3.07;;;2.60;99.90;;;;;;5134100;27;20199;-68
2022/01/28 01:17:04;;;;;;;7.80;2.97;;;2.60;99.90;;;;;;5135217;27;20206;-68
2022/01/28 01:19:35;;;;;;;11.63;2.70;;;2.60;99.90;;;;;;5132748;27;20203;-68
2022/01/28 01:22:01;;;;;;;14.80;3.33;;;2.60;99.90;;;;;;5138733;27;20428;-69
2022/01/28 01:24:34;;;;;;;9.30;3.47;;;2.60;99.90;;;;;;5137074;27;20424;-68
2022/01/28 01:27:00;;;;;;;5.87;2.73;;;2.60;99.90;;;;;;5134676;27;20445;-68
2022/01/28 01:29:27;;;;;;;7.30;3.80;;;2.60;99.90;;;;;;5136185;27;20428;-68
2022/01/28 01:32:00;;;;;;;9.77;4.33;;;2.60;99.90;;;;;;5135806;27;20476;-68
2022/01/28 01:34:26;;;;;;;4.50;2.57;;;2.60;99.90;;;;;;5138583;27;20517;-68
2022/01/28 01:36:52;;;;;;;5.13;2.50;;;2.60;99.90;;;;;;5130149;27;20572;-68
2022/01/28 01:39:24;;;;;;;6.77;3.00;;;2.60;99.90;;;;;;5138044;27;20460;-68
2022/01/28 01:42:05;;;;;;;6.00;2.90;;;2.60;99.90;;;;;;5130804;27;20187;-68
2022/01/28 01:52:57;;;;;;;5.80;3.20;;;2.50;99.90;;;;;;5103910;27;20477;-68
2022/01/28 01:55:24;;;;;;;5.70;2.90;;;2.40;99.90;;;;;;5129929;27;20432;-68
2022/01/28 01:57:50;;;;;;;3.87;2.10;;;2.40;99.90;;;;;;5129570;27;20191;-69
2022/01/28 02:00:16;;;;;;;11.40;2.67;;;2.40;99.90;;;;;;5129911;27;20480;-68
2022/01/28 02:02:42;;;;;;;5.47;2.70;;;2.40;99.90;;;;;;5129807;27;21199;-68
2022/01/28 02:05:08;;;;;;;7.63;3.00;;;2.40;99.90;;;;;;5129845;27;20417;-69
2022/01/28 02:07:34;;;;;;;6.07;2.90;;;2.30;99.90;;;;;;5131180;27;20252;-68
2022/01/28 02:10:00;;;;;;;5.00;2.47;;;2.30;99.90;;;;;;5133177;27;20209;-69
2022/01/28 02:12:25;;;;;;;6.03;2.70;;;2.30;99.90;;;;;;5136184;27;20424;-68
2022/01/28 02:14:51;;;;;;;9.20;3.53;;;2.40;99.90;;;;;;5132745;27;20199;-68
2022/01/28 02:17:17;;;;;;;4.13;2.20;;;2.20;99.90;;;;;;5133971;27;20186;-68
2022/01/28 02:19:42;;;;;;;3.40;1.93;;;2.30;99.90;;;;;;5135893;27;20298;-68
2022/01/28 02:22:09;;;;;;;5.30;2.90;;;2.40;99.90;;;;;;5133206;27;20680;-68
2022/01/28 02:24:41;;;;;;;4.00;1.90;;;2.40;99.90;;;;;;5132708;27;20183;-68
2022/01/28 02:27:08;;;;;;;5.60;2.10;;;2.20;99.90;;;;;;5131793;27;20437;-68
2022/01/28 02:29:35;;;;;;;5.17;2.97;;;2.30;99.90;;;;;;5131543;27;20412;-68
2022/01/28 02:32:04;;;;;;;5.60;2.27;;;2.20;99.90;;;;;;5134746;27;20476;-68
2022/01/28 02:34:30;;;;;;;6.87;2.57;;;2.20;99.90;;;;;;5135344;27;20452;-68
2022/01/28 02:36:56;;;;;;;6.27;2.20;;;2.20;99.90;;;;;;5136653;27;20472;-68
2022/01/28 02:39:22;;;;;;;5.53;2.40;;;2.30;99.90;;;;;;5132361;27;20252;-68
2022/01/28 02:41:52;;;;;;;4.80;2.60;;;2.10;99.90;;;;;;5128966;27;20424;-68
2022/01/28 02:44:45;;;;;;;4.47;2.53;;;2.20;99.90;;;;;;5129598;27;20179;-68
2022/01/28 02:47:17;;;;;;;5.07;2.80;;;2.10;99.90;;;;;;5128713;27;20471;-68
2022/01/28 02:49:44;;;;;;;5.23;2.37;;;2.10;99.90;;;;;;5133434;27;20420;-68
2022/01/28 02:52:18;;;;;;;5.13;2.83;;;2.10;99.90;;;;;;5128501;27;21003;-68
2022/01/28 02:54:47;;;;;;;4.60;2.30;;;2.10;99.90;;;;;;5129403;27;20524;-68
2022/01/28 02:57:16;;;;;;;6.33;2.37;;;2.00;99.90;;;;;;5132520;27;20412;-68
2022/01/28 02:59:42;;;;;;;7.43;2.80;;;2.00;99.90;;;;;;5132483;27;20467;-68
2022/01/28 03:02:07;;;;;;;4.23;2.63;;;2.00;99.90;;;;;;5132518;27;20451;-68
2022/01/28 03:05:05;;;;;;;5.63;2.53;;;2.00;99.90;;;;;;5129190;27;20217;-68
2022/01/28 03:07:28;;;;;;;4.63;2.50;;;2.00;99.90;;;;;;5132501;27;20641;-68
2022/01/28 03:10:26;;;;;;;5.80;2.67;;;1.90;99.90;;;;;;5129240;27;20430;-68
2022/01/28 03:15:34;;;;;;;6.37;3.53;;;2.00;99.90;;;;;;5092197;27;20790;-68
2022/01/28 03:18:17;;;;;;;8.57;3.40;;;1.90;99.90;;;;;;5129037;27;20420;-68
2022/01/28 03:23:17;;;;;;;6.73;2.63;;;1.90;99.90;;;;;;5130447;27;20470;-68
2022/01/28 03:25:45;;;;;;;5.10;2.57;;;1.90;99.90;;;;;;5130146;27;20859;-68
2022/01/28 03:28:13;;;;;;;5.03;2.10;;;1.90;99.90;;;;;;5130811;27;20175;-68
2022/01/28 03:30:38;;;;;;;6.63;2.40;;;1.90;99.90;;;;;;5129750;27;20432;-68
2022/01/28 03:33:04;;;;;;;6.47;2.77;;;1.80;99.90;;;;;;5131200;27;20435;-68
2022/01/28 03:35:32;;;;;;;13.30;2.10;;;1.80;99.90;;;;;;5133220;27;20201;-68
2022/01/28 03:38:02;;;;;;;16.93;2.27;;;1.70;99.90;;;;;;5126535;27;20194;-68
2022/01/28 03:40:32;;;;;;;8.73;3.30;;;1.80;99.90;;;;;;5128530;27;20478;-68
2022/01/28 03:42:58;;;;;;;4.30;2.57;;;1.70;99.90;;;;;;5128267;27;20416;-68
2022/01/28 03:45:24;;;;;;;4.90;2.50;;;1.50;99.90;;;;;;5128499;27;20480;-68
2022/01/28 03:47:50;;;;;;;6.07;2.67;;;1.40;99.90;;;;;;5125518;27;20824;-68
2022/01/28 03:50:16;;;;;;;6.20;3.40;;;1.50;99.90;;;;;;5124525;27;20440;-67
2022/01/28 03:52:41;;;;;;;6.90;2.50;;;1.50;99.90;;;;;;5129397;27;20187;-68
2022/01/28 03:55:07;;;;;;;4.13;2.50;;;1.60;99.90;;;;;;5127956;27;20179;-68
2022/01/28 03:57:33;;;;;;;4.77;2.50;;;1.60;99.90;;;;;;5130089;27;20208;-68
2022/01/28 03:59:59;;;;;;;8.10;3.30;;;1.50;99.90;;;;;;5129154;27;20452;-68
2022/01/28 04:02:28;;;;;;;8.17;3.77;;;1.60;99.90;;;;;;5128449;27;20191;-68
2022/01/28 04:12:52;;;;;;;7.27;2.77;;;1.70;99.90;;;;;;5132701;27;20759;-68
2022/01/28 04:15:23;;;;;;;5.43;3.10;;;1.70;99.90;;;;;;5134376;27;20432;-68
2022/01/28 04:17:50;;;;;;;13.73;3.20;;;1.70;99.90;;;;;;5128031;27;20984;-68
2022/01/28 04:20:16;;;;;;;12.07;3.30;;;1.60;99.90;;;;;;5127663;27;20517;-68
2022/01/28 04:22:42;;;;;;;5.13;3.03;;;1.70;99.90;;;;;;5127633;27;20445;-68
2022/01/28 04:25:08;;;;;;;4.93;2.97;;;1.80;99.90;;;;;;5128321;27;20420;-67
2022/01/28 04:27:34;;;;;;;9.43;2.40;;;1.80;99.90;;;;;;5109779;27;20182;-68
2022/01/28 04:30:00;;;;;;;6.60;2.63;;;1.80;99.90;;;;;;5128726;27;20428;-68
2022/01/28 04:32:28;;;;;;;6.13;2.87;;;1.80;99.90;;;;;;5129001;27;20183;-68
2022/01/28 04:34:54;;;;;;;7.23;3.27;;;1.90;99.90;;;;;;5128527;27;20202;-68
2022/01/28 04:37:43;;;;;;;7.60;3.10;;;1.80;99.90;;;;;;5128801;27;20458;-68
2022/01/28 04:40:22;;;;;;;7.00;3.67;;;1.80;99.90;;;;;;5122536;28;20520;-68
2022/01/28 05:01:11;;;;;;;8.33;3.70;;;1.70;99.90;;;;;;5132769;27;20520;-68
2022/01/28 05:09:06;;;;;;;7.57;4.07;;;1.70;99.90;;;;;;5131524;27;20504;-68
2022/01/28 05:12:08;;;;;;;10.97;4.00;;;1.60;99.90;;;;;;5132784;27;20416;-68
2022/01/28 05:14:46;;;;;;;8.00;3.73;;;1.70;99.90;;;;;;5131401;27;20420;-68
2022/01/28 05:27:39;;;;;;;9.07;4.00;;;1.70;99.90;;;;;;5132914;27;20561;-68
2022/01/28 05:30:06;;;;;;;10.83;3.80;;;1.60;99.90;;;;;;5135871;27;20827;-68
2022/01/28 05:32:32;;;;;;;13.50;4.00;;;1.50;99.90;;;;;;5130245;27;20477;-68
2022/01/28 05:34:57;;;;;;;9.00;2.97;;;1.50;99.90;;;;;;5131593;27;20428;-68
2022/01/28 05:37:23;;;;;;;9.33;4.60;;;1.40;99.90;;;;;;5130313;27;20206;-69
2022/01/28 05:39:49;;;;;;;4.50;2.70;;;1.40;99.90;;;;;;5130861;27;20658;-68
2022/01/28 05:42:14;;;;;;;6.70;3.37;;;1.40;99.90;;;;;;5132220;27;20620;-68
2022/01/28 05:44:40;;;;;;;9.53;4.60;;;1.50;99.90;;;;;;5132129;27;20695;-68
2022/01/28 05:47:06;;;;;;;9.83;4.53;;;1.50;99.90;;;;;;5129044;27;20182;-68
2022/01/28 05:49:31;;;;;;;8.87;5.23;;;1.40;99.90;;;;;;5119174;27;20296;-68
2022/01/28 05:51:57;;;;;;;13.13;5.37;;;1.40;99.90;;;;;;5130008;27;20224;-69
2022/01/28 05:54:23;;;;;;;14.20;4.17;;;1.30;99.90;;;;;;5129315;27;20183;-68
2022/01/28 05:56:49;;;;;;;12.17;4.63;;;1.30;99.90;;;;;;5130120;27;20216;-68
2022/01/28 05:59:15;;;;;;;14.83;5.00;;;1.30;99.90;;;;;;5132287;27;20454;-68
2022/01/28 06:01:40;;;;;;;12.67;4.40;;;1.30;99.90;;;;;;5130532;27;20509;-68
2022/01/28 06:04:06;;;;;;;10.70;4.53;;;1.30;99.90;;;;;;5131538;27;20622;-68
2022/01/28 06:06:33;;;;;;;7.20;3.10;;;1.20;99.90;;;;;;5131643;27;20187;-68
2022/01/28 06:08:59;;;;;;;12.73;3.53;;;1.10;99.90;;;;;;5136130;27;20206;-68
2022/01/28 06:11:25;;;;;;;6.93;3.03;;;1.10;99.90;;;;;;5133139;27;20455;-68
2022/01/28 06:13:51;;;;;;;6.43;2.90;;;1.00;99.90;;;;;;5127382;27;20186;-68
2022/01/28 06:16:18;;;;;;;22.33;3.33;;;1.00;99.90;;;;;;5134339;27;20484;-68
2022/01/28 06:18:44;;;;;;;13.20;4.60;;;1.00;99.90;;;;;;5133739;27;20431;-68
2022/01/28 06:21:10;;;;;;;8.17;3.47;;;0.90;99.90;;;;;;5129728;27;20436;-68
2022/01/28 06:23:36;;;;;;;12.73;3.53;;;0.80;99.90;;;;;;5142221;27;21155;-68
2022/01/28 06:26:03;;;;;;;9.57;3.80;;;0.70;99.90;;;;;;5131315;27;20500;-68
2022/01/28 06:28:29;;;;;;;10.17;5.50;;;0.70;99.90;;;;;;5130288;27;20175;-68
2022/01/28 06:30:55;;;;;;;9.97;4.10;;;0.70;99.90;;;;;;5129595;27;21255;-68
2022/01/28 06:33:20;;;;;;;8.30;3.50;;;0.70;99.90;;;;;;5130617;27;20424;-68
2022/01/28 06:35:47;;;;;;;7.23;4.10;;;0.80;99.90;;;;;;5129359;27;20179;-68
2022/01/28 06:38:13;;;;;;;8.60;4.80;;;0.70;99.90;;;;;;5130734;27;20231;-68
2022/01/28 06:40:39;;;;;;;8.00;4.10;;;0.70;99.90;;;;;;5129258;27;20464;-68
2022/01/28 06:43:08;;;;;;;9.60;5.00;;;0.70;99.90;;;;;;5131434;27;20913;-68
2022/01/28 06:45:35;;;;;;;11.27;3.87;;;0.70;99.90;;;;;;5132979;27;20186;-68
2022/01/28 06:48:00;;;;;;;12.57;4.50;;;0.70;99.90;;;;;;5133914;27;20477;-68
2022/01/28 06:50:26;;;;;;;9.77;4.30;;;0.60;99.90;;;;;;5130089;27;20421;-68
2022/01/28 06:52:51;;;;;;;13.77;4.90;;;0.60;99.90;;;;;;5130042;27;20725;-68
2022/01/28 06:55:17;;;;;;;10.00;4.70;;;0.60;99.90;;;;;;5135330;27;20658;-68
2022/01/28 06:57:43;;;;;;;9.20;4.07;;;0.70;99.90;;;;;;5130574;27;20179;-68
2022/01/28 07:00:11;;;;;;;16.77;4.70;;;0.70;99.90;;;;;;5130906;27;20249;-68
2022/01/28 07:02:37;;;;;;;9.10;5.00;;;0.70;99.90;;;;;;5130826;27;20426;-68
2022/01/28 07:05:04;;;;;;;16.10;4.20;;;0.70;99.90;;;;;;5131735;27;21088;-68
2022/01/28 07:07:30;;;;;;;10.93;3.70;;;0.70;99.90;;;;;;5128063;27;20457;-68
2022/01/28 07:09:56;;;;;;;14.23;4.53;;;0.60;99.90;;;;;;5129461;27;20486;-68
2022/01/28 07:12:22;;;;;;;8.23;4.27;;;0.70;99.90;;;;;;5130166;27;20420;-68
2022/01/28 07:14:49;;;;;;;8.87;4.47;;;0.80;99.90;;;;;;5113390;27;20213;-68
2022/01/28 07:17:15;;;;;;;16.07;3.97;;;0.90;99.90;;;;;;5131033;27;20427;-68
2022/01/28 07:19:41;;;;;;;7.10;3.10;;;0.90;99.90;;;;;;5128701;27;20460;-68
2022/01/28 07:22:07;;;;;;;12.70;4.00;;;1.00;99.90;;;;;;5133125;27;20428;-68
2022/01/28 07:24:33;;;;;;;11.30;4.87;;;1.10;99.90;;;;;;5130459;27;20171;-68
2022/01/28 07:26:59;;;;;;;11.97;4.67;;;1.10;99.90;;;;;;5122728;27;20414;-68
2022/01/28 07:29:28;;;;;;;10.87;4.90;;;1.20;99.90;;;;;;5127184;27;20868;-68
2022/01/28 07:31:54;;;;;;;7.77;4.23;;;1.20;99.90;;;;;;5125716;27;20416;-68
2022/01/28 07:34:20;;;;;;;9.40;4.87;;;1.20;99.90;;;;;;5123732;27;20436;-68
2022/01/28 07:36:46;;;;;;;8.70;2.90;;;1.30;99.90;;;;;;5118396;27;20444;-68
2022/01/28 07:39:12;;;;;;;9.43;3.93;;;1.30;99.90;;;;;;5127699;27;20213;-68
2022/01/28 07:41:39;;;;;;;9.50;4.00;;;1.30;99.90;;;;;;5130949;27;20180;-68
2022/01/28 07:44:06;;;;;;;6.83;2.87;;;1.30;99.90;;;;;;5128615;27;20216;-68
2022/01/28 07:46:32;;;;;;;12.97;3.67;;;1.30;99.90;;;;;;5128850;27;20825;-68
2022/01/28 07:48:58;;;;;;;10.10;4.70;;;1.30;99.90;;;;;;5134754;27;20499;-68
2022/01/28 07:51:24;;;;;;;15.87;4.63;;;1.40;99.90;;;;;;5129186;27;20523;-68
2022/01/28 07:53:50;;;;;;;5.73;3.30;;;1.30;99.90;;;;;;5125510;27;20190;-68
2022/01/28 07:56:16;;;;;;;7.30;3.73;;;1.40;99.90;;;;;;5136616;27;20480;-68
2022/01/28 07:58:41;;;;;;;8.23;3.30;;;1.40;99.90;;;;;;5130561;27;20431;-68
2022/01/28 08:01:07;;;;;;;14.60;3.60;;;1.50;99.90;;;;;;5138058;27;20227;-68
2022/01/28 08:03:33;;;;;;;7.00;2.70;;;1.60;99.90;;;;;;5127874;27;20232;-68
2022/01/28 08:05:59;;;;;;;5.77;2.50;;;1.70;99.90;;;;;;5135198;27;20190;-68
2022/01/28 08:08:25;;;;;;;5.83;3.07;;;1.80;99.90;;;;;;5138843;27;20436;-68
2022/01/28 08:10:51;;;;;;;10.53;3.63;;;1.90;99.90;;;;;;5138171;27;20194;-68
2022/01/28 08:13:17;;;;;;;6.73;2.67;;;1.90;99.90;;;;;;5127720;27;20184;-68
2022/01/28 08:15:43;;;;;;;7.10;3.30;;;2.00;99.90;;;;;;5133950;27;21213;-67
2022/01/28 08:18:09;;;;;;;7.57;2.93;;;2.00;99.90;;;;;;5139747;27;20209;-68
2022/01/28 08:20:36;;;;;;;7.37;3.43;;;2.10;99.90;;;;;;5127278;27;20976;-67
2022/01/28 08:23:02;;;;;;;8.73;3.37;;;2.00;99.90;;;;;;5124544;27;20436;-68
2022/01/28 08:25:31;;;;;;;10.30;3.60;;;2.00;99.90;;;;;;5133887;27;21191;-68
2022/01/28 08:27:58;;;;;;;13.90;3.47;;;2.00;99.90;;;;;;5122020;27;20454;-68
2022/01/28 08:30:26;;;;;;;6.40;3.00;;;2.10;99.90;;;;;;5133232;27;20533;-68
2022/01/28 08:32:52;;;;;;;6.13;2.37;;;2.20;99.90;;;;;;5128907;27;20426;-71
2022/01/28 08:35:29;;;;;;;6.20;3.20;;;2.20;99.90;;;;;;5136917;27;20423;-68
2022/01/28 08:37:56;;;;;;;13.30;3.80;;;2.10;99.90;;;;;;5122246;27;21018;-71
2022/01/28 08:40:23;;;;;;;8.23;2.50;;;2.20;99.90;;;;;;5130356;27;20545;-71
2022/01/28 08:42:48;;;;;;;11.60;2.93;;;2.20;99.90;;;;;;5131658;27;20520;-71
2022/01/28 08:45:14;;;;;;;8.80;3.23;;;2.20;99.90;;;;;;5137078;27;20850;-71
2022/01/28 08:47:40;;;;;;;6.93;2.83;;;2.20;99.90;;;;;;5129603;27;20948;-71
2022/01/28 08:50:06;;;;;;;6.43;2.67;;;2.30;99.90;;;;;;5120975;27;20187;-71
2022/01/28 08:52:32;;;;;;;8.50;2.83;;;2.50;99.90;;;;;;5131942;27;20179;-71
2022/01/28 08:54:58;;;;;;;6.57;3.30;;;2.80;99.90;;;;;;5127822;27;20447;-71
2022/01/28 08:57:23;;;;;;;5.70;2.73;;;3.10;99.90;;;;;;5127123;27;20308;-71
2022/01/28 08:59:49;;;;;;;8.37;3.27;;;3.30;99.90;;;;;;5121952;27;20574;-71
2022/01/28 09:02:14;;;;;;;8.57;3.47;;;3.20;99.90;;;;;;5128067;27;20179;-71
2022/01/28 09:04:40;;;;;;;4.67;2.30;;;3.10;99.90;;;;;;5128364;27;20700;-71
2022/01/28 09:07:06;;;;;;;4.93;2.77;;;3.10;99.90;;;;;;5130733;27;20584;-70
2022/01/28 09:09:32;;;;;;;10.53;2.70;;;3.10;99.90;;;;;;5134807;27;20187;-70
2022/01/28 09:14:32;;;;;;;9.33;2.97;;;2.90;99.90;;;;;;5129204;27;20183;-70
2022/01/28 09:16:58;;;;;;;7.90;2.60;;;3.00;99.90;;;;;;5128759;27;20424;-70
2022/01/28 09:19:23;;;;;;;5.20;2.43;;;3.10;99.90;;;;;;5126143;27;20207;-70
2022/01/28 09:21:51;;;;;;;8.40;2.57;;;3.10;99.90;;;;;;5116184;27;20267;-70
2022/01/28 09:24:17;;;;;;;6.53;3.03;;;3.20;99.90;;;;;;5129709;27;20254;-70
2022/01/28 09:26:43;;;;;;;6.60;3.30;;;3.20;99.90;;;;;;5126277;27;20424;-70
2022/01/28 09:29:08;;;;;;;8.43;3.47;;;3.10;99.90;;;;;;5127244;27;20449;-70
2022/01/28 09:31:34;;;;;;;5.23;2.20;;;3.20;99.90;;;;;;5125553;27;20417;-70
2022/01/28 09:34:00;;;;;;;6.10;2.73;;;3.20;99.90;;;;;;5129666;27;20270;-70
2022/01/28 09:36:26;;;;;;;4.53;2.13;;;3.30;99.90;;;;;;5122734;27;20688;-70
2022/01/28 09:38:52;;;;;;;6.67;2.50;;;3.20;99.90;;;;;;5129616;27;20421;-71
2022/01/28 09:41:18;;;;;;;4.83;2.70;;;3.20;99.90;;;;;;5127272;27;20201;-70
2022/01/28 09:43:45;;;;;;;10.00;3.00;;;3.30;99.90;;;;;;5127589;27;20190;-70
2022/01/28 09:46:12;;;;;;;3.77;2.13;;;3.50;99.90;;;;;;5119259;27;20444;-70
2022/01/28 09:48:39;;;;;;;6.67;2.80;;;3.60;99.90;;;;;;5118338;27;20432;-69
2022/01/28 09:51:06;;;;;;;7.07;2.23;;;3.60;99.90;;;;;;5129808;27;20434;-70
2022/01/28 09:53:32;;;;;;;6.10;2.10;;;3.70;99.90;;;;;;5124420;27;20421;-71
2022/01/28 09:55:58;;;;;;;4.33;1.83;;;3.60;99.90;;;;;;5131106;27;20524;-72
2022/01/28 09:58:24;;;;;;;6.13;1.90;;;3.60;99.90;;;;;;5128277;27;20444;-72
2022/01/28 10:00:51;;;;;;;8.13;1.87;;;3.70;99.90;;;;;;5125908;27;20467;-72
2022/01/28 10:03:18;;;;;;;5.47;2.07;;;3.70;99.90;;;;;;5126450;27;20421;-71
2022/01/28 10:05:56;;;;;;;2.73;1.57;;;3.70;99.90;;;;;;5132374;27;20824;-71
2022/01/28 10:08:24;;;;;;;9.63;1.70;;;3.60;99.90;;;;;;5123974;27;20417;-72
2022/01/28 10:10:53;;;;;;;3.00;1.67;;;3.50;99.90;;;;;;5124478;27;20425;-71
2022/01/28 10:14:13;;;;;;;10.77;2.23;;;3.50;99.90;;;;;;5130339;27;20432;-71
2022/01/28 10:16:12;;;;;;;5.90;1.90;;;3.60;99.90;;;;;;5117956;27;20484;-71
2022/01/28 10:18:44;;;;;;;2.80;1.77;;;3.80;99.90;;;;;;5122800;27;20422;-71
2022/01/28 10:21:33;;;;;;;4.40;2.13;;;4.00;99.90;;;;;;5127380;27;20491;-72
2022/01/28 10:24:09;;;;;;;6.20;2.40;;;4.20;99.90;;;;;;5125669;27;20444;-72
2022/01/28 10:26:39;;;;;;;3.10;1.53;;;4.50;99.90;;;;;;5129747;27;20779;-72
2022/01/28 10:29:08;;;;;;;6.97;2.10;;;4.60;99.90;;;;;;5125440;27;20779;-72
2022/01/28 10:31:35;;;;;;;3.20;1.90;;;4.60;99.90;;;;;;5135189;27;20411;-72
2022/01/28 10:34:30;;;;;;;3.07;1.40;;;4.60;99.90;;;;;;5134114;27;20781;-71
2022/01/28 10:37:14;;;;;;;4.80;2.00;;;4.60;99.90;;;;;;5099672;27;20448;-71
2022/01/28 10:39:50;;;;;;;3.83;2.10;;;4.50;99.90;;;;;;5131593;27;20491;-71
2022/01/28 10:42:19;;;;;;;5.93;2.00;;;4.40;99.90;;;;;;5121197;27;20400;-72
2022/01/28 10:45:09;;;;;;;3.80;2.00;;;4.50;99.90;;;;;;5134619;27;20418;-72
2022/01/28 10:47:45;;;;;;;9.97;2.07;;;4.40;99.90;;;;;;5129416;27;20408;-71
2022/01/28 10:50:24;;;;;;;4.43;1.93;;;4.50;99.90;;;;;;5125752;27;20412;-72
2022/01/28 10:52:58;;;;;;;4.83;1.70;;;4.50;99.90;;;;;;5135941;27;20433;-71
2022/01/28 10:55:24;;;;;;;3.60;2.00;;;4.70;99.50;;;;;;5126036;27;20519;-71
2022/01/28 10:58:06;;;;;;;4.97;1.90;;;4.70;99.70;;;;;;5129075;27;20408;-71
2022/01/28 11:00:36;;;;;;;1.57;1.00;;;4.70;99.20;;;;;;5125367;27;20221;-72
2022/01/28 11:03:08;;;;;;;3.63;1.83;;;4.60;99.30;;;;;;5130710;27;20890;-71
2022/01/28 11:05:36;;;;;;;3.50;1.47;;;4.70;99.10;;;;;;5124015;27;20437;-72
2022/01/28 11:08:04;;;;;;;2.90;1.73;;;4.80;99.90;;;;;;5127678;27;20849;-71
2022/01/28 11:10:30;;;;;;;11.40;1.87;;;5.00;99.70;;;;;;5127142;27;20644;-71
2022/01/28 11:12:59;;;;;;;3.23;1.30;;;5.10;99.30;;;;;;5121062;27;20441;-71
2022/01/28 11:15:24;;;;;;;6.00;1.70;;;5.00;99.70;;;;;;5128193;27;21140;-72
2022/01/28 11:17:51;;;;;;;1.80;0.70;;;5.10;98.90;;;;;;5129605;27;20416;-72
2022/01/28 11:20:31;;;;;;;10.13;1.80;;;5.00;99.00;;;;;;5115899;27;20250;-71
2022/01/28 11:23:17;;;;;;;4.63;1.30;;;5.10;98.80;;;;;;5124346;27;20436;-72
2022/01/28 11:26:10;;;;;;;3.03;1.60;;;5.20;98.50;;;;;;5123389;27;20448;-71
2022/01/28 11:28:41;;;;;;;3.60;1.70;;;5.30;97.90;;;;;;5119294;27;20492;-71
2022/01/28 11:31:06;;;;;;;3.17;1.30;;;5.40;98.40;;;;;;5116571;27;20795;-71
2022/01/28 11:33:48;;;;;;;3.00;0.93;;;5.60;97.90;;;;;;5116125;27;20534;-71
2022/01/28 11:36:29;;;;;;;3.53;1.53;;;5.80;97.20;;;;;;5118654;27;20220;-71
2022/01/28 11:38:56;;;;;;;2.87;1.60;;;5.90;97.20;;;;;;5119547;27;20445;-71
2022/01/28 11:41:24;;;;;;;4.43;1.60;;;6.00;96.90;;;;;;5124376;27;20416;-72
2022/01/28 11:43:56;;;;;;;3.00;0.90;;;6.00;96.40;;;;;;5125156;27;20420;-72
2022/01/28 11:46:22;;;;;;;5.43;1.50;;;5.90;96.50;;;;;;5126551;27;20432;-71
2022/01/28 11:48:57;;;;;;;4.80;1.33;;;5.80;96.00;;;;;;5137068;27;20407;-72
2022/01/28 11:51:32;;;;;;;4.83;1.67;;;6.10;95.40;;;;;;5130996;27;20178;-72
2022/01/28 11:53:58;;;;;;;7.30;1.53;;;6.20;95.70;;;;;;5120062;27;20431;-72
2022/01/28 11:56:25;;;;;;;12.30;2.60;;;6.00;95.70;;;;;;5124448;27;20425;-72
2022/01/28 11:58:54;;;;;;;3.43;1.17;;;6.00;96.30;;;;;;5124047;27;20474;-72
2022/01/28 12:01:44;;;;;;;2.20;1.13;;;5.90;95.00;;;;;;5129277;27;21137;-71
2022/01/28 12:04:29;;;;;;;7.70;1.93;;;5.70;95.90;;;;;;5107330;27;21013;-72
2022/01/28 12:07:15;;;;;;;7.03;1.80;;;5.50;95.60;;;;;;5130151;27;20789;-72
2022/01/28 12:09:55;;;;;;;1.63;1.10;;;5.40;95.60;;;;;;5125754;27;20963;-72
2022/01/28 12:12:44;;;;;;;2.33;1.00;;;5.30;96.20;;;;;;5125520;27;20748;-70
2022/01/28 12:15:15;;;;;;;4.20;1.40;;;5.10;96.70;;;;;;5133734;27;20427;-71
2022/01/28 12:17:44;;;;;;;13.00;5.97;;;5.20;96.80;;;;;;5128107;27;20629;-71
2022/01/28 12:20:15;;;;;;;4.00;1.60;;;5.10;97.00;;;;;;5124187;27;21106;-71
2022/01/28 12:22:59;;;;;;;3.37;1.93;;;5.10;96.50;;;;;;5124673;27;20412;-70
2022/01/28 12:25:46;;;;;;;3.10;1.40;;;4.90;97.00;;;;;;5126289;27;20463;-69
2022/01/28 12:28:23;;;;;;;2.37;0.93;;;4.70;96.30;;;;;;5133129;27;20451;-70
2022/01/28 12:30:51;;;;;;;5.40;1.43;;;4.60;96.40;;;;;;5131808;27;20416;-70
2022/01/28 12:33:24;;;;;;;3.93;1.27;;;4.80;96.70;;;;;;5130850;27;20519;-70
2022/01/28 12:35:52;;;;;;;6.37;1.57;;;5.10;96.10;;;;;;5132920;27;20518;-70
2022/01/28 12:38:24;;;;;;;11.80;1.13;;;5.40;95.20;;;;;;5132477;27;20432;-70
2022/01/28 12:40:53;;;;;;;6.03;1.40;;;5.60;95.10;;;;;;5127048;27;20531;-70
2022/01/28 12:43:21;;;;;;;7.63;0.90;;;5.70;94.50;;;;;;5130359;27;20460;-70
2022/01/28 12:45:57;;;;;;;5.73;1.30;;;5.60;94.80;;;;;;5124995;27;20420;-70
2022/01/28 12:48:23;;;;;;;3.50;1.00;;;5.70;94.30;;;;;;5125451;27;20443;-70
2022/01/28 12:50:50;;;;;;;2.40;1.10;;;5.50;94.20;;;;;;5116885;27;20422;-70
2022/01/28 12:53:39;;;;;;;3.77;1.40;;;5.20;94.70;;;;;;5122618;27;20187;-70
2022/01/28 12:56:06;;;;;;;2.87;1.37;;;4.90;95.10;;;;;;5124914;27;20428;-70
2022/01/28 12:58:48;;;;;;;9.80;1.30;;;4.80;95.20;;;;;;5124462;27;20425;-70
2022/01/28 13:01:17;;;;;;;3.20;1.23;;;4.80;95.30;;;;;;5130190;27;20460;-70
2022/01/28 13:03:54;;;;;;;2.67;1.00;;;4.70;95.60;;;;;;5117315;27;20444;-70
2022/01/28 13:09:01;;;;;;;2.50;1.00;;;4.50;96.40;;;;;;5126388;27;20454;-70
2022/01/28 13:11:29;;;;;;;3.00;1.37;;;4.50;96.40;;;;;;5135132;27;20462;-70
2022/01/28 13:13:56;;;;;;;3.00;1.10;;;4.50;96.60;;;;;;5134339;27;21175;-70
2022/01/28 13:16:30;;;;;;;5.53;1.70;;;4.60;96.50;;;;;;5141227;27;20472;-70
2022/01/28 13:18:57;;;;;;;4.50;1.10;;;4.70;96.50;;;;;;5125006;27;20555;-70
2022/01/28 13:21:23;;;;;;;5.87;1.50;;;4.70;96.10;;;;;;5131591;27;20511;-70
2022/01/28 13:23:48;;;;;;;2.33;1.27;;;4.80;96.30;;;;;;5129328;27;20428;-70
2022/01/28 13:26:14;;;;;;;2.47;1.43;;;4.70;96.60;;;;;;5129067;27;20183;-70
2022/01/28 13:28:40;;;;;;;9.07;1.80;;;4.70;96.70;;;;;;5134991;27;20185;-70
2022/01/28 13:31:06;;;;;;;4.90;1.80;;;4.60;97.40;;;;;;5139566;27;20181;-69
2022/01/28 13:33:32;;;;;;;2.90;1.33;;;4.40;97.60;;;;;;5135270;27;20714;-69
2022/01/28 13:35:59;;;;;;;4.00;1.70;;;4.40;98.00;;;;;;5134951;27;20813;-69
2022/01/28 13:38:32;;;;;;;7.20;2.10;;;4.50;97.80;;;;;;5126565;27;20615;-70
2022/01/28 13:40:58;;;;;;;14.70;2.53;;;4.50;97.80;;;;;;5131251;27;20464;-69
2022/01/28 13:43:24;;;;;;;3.97;1.70;;;4.70;97.30;;;;;;5129344;27;20852;-70
2022/01/28 13:45:57;;;;;;;3.20;1.73;;;4.90;97.30;;;;;;5131432;27;20187;-70
2022/01/28 13:48:32;;;;;;;4.67;1.80;;;4.90;96.90;;;;;;5134548;27;20270;-69
2022/01/28 13:51:12;;;;;;;5.63;1.57;;;4.80;96.90;;;;;;5129796;27;20423;-69
2022/01/28 13:56:43;;;;;;;4.80;1.87;;;4.60;97.20;;;;;;5133185;27;20558;-70
2022/01/28 13:59:26;;;;;;;13.00;2.33;;;4.50;97.20;;;;;;5133042;27;20863;-70
2022/01/28 14:01:54;;;;;;;3.40;2.20;;;4.50;97.30;;;;;;5125541;27;21199;-69
2022/01/28 14:04:23;;;;;;;6.30;2.20;;;4.50;97.50;;;;;;5131341;27;20413;-70
2022/01/28 14:06:49;;;;;;;4.53;1.87;;;4.40;97.40;;;;;;5116639;27;20442;-70
2022/01/28 14:09:19;;;;;;;6.50;2.30;;;4.30;97.70;;;;;;5132832;27;21005;-70
2022/01/28 14:11:49;;;;;;;4.73;2.23;;;4.20;97.90;;;;;;5131519;27;20179;-70
2022/01/28 14:14:23;;;;;;;4.80;2.40;;;4.10;98.30;;;;;;5130786;27;20425;-69
2022/01/28 14:16:56;;;;;;;4.73;2.63;;;4.10;98.50;;;;;;5128928;27;20891;-69
2022/01/28 14:19:23;;;;;;;5.20;2.70;;;4.10;98.60;;;;;;5124478;27;20480;-70
2022/01/28 14:21:50;;;;;;;8.67;2.50;;;4.10;98.40;;;;;;5128585;27;20420;-69
2022/01/28 14:24:29;;;;;;;5.70;2.80;;;4.00;98.60;;;;;;5129008;27;20413;-69
2022/01/28 14:27:06;;;;;;;10.40;2.10;;;3.90;98.80;;;;;;5132673;27;20431;-70
2022/01/28 14:32:12;;;;;;;10.48;2.30;;;3.90;99.50;;;;;;5126586;27;20429;-69
2022/01/28 14:34:39;;;;;;;2.70;1.40;;;3.80;99.30;;;;;;5132399;27;20904;-69
2022/01/28 14:37:05;;;;;;;3.73;2.13;;;3.80;99.20;;;;;;5124503;27;20481;-70
2022/01/28 14:39:33;;;;;;;4.60;2.73;;;3.90;99.20;;;;;;5132143;27;20462;-69